Погода Залипьена неделю

Гомельская область, Белоруссия

19 - 25 июля
  • 19июля
    Сегодня
    +15°
    +27°
    Ясно и безоблачно
    ВремяПогодаТемператураВлажностьДавлениеВетер, м/сВероятность осадков
    00:00Ясно и безоблачно+20°C95 %751 мм1.4 м/с15 %
    03:00Ясно и безоблачно+19°C97 %750 мм1.3 м/с1 %
    06:00Облачно с прояснениями+19°C96 %750 мм1.2 м/с2 %
    09:00Облачно с прояснениями+21°C81 %751 мм2.3 м/с16 %
    12:00Небольшая облачность+23°C60 %750 мм2.7 м/с21 %
    15:00Ясно и безоблачно+27°C49 %750 мм2.7 м/с2 %
    18:00Ясно и безоблачно+27°C49 %749 мм3.6 м/с2 %
    21:00Ясно и безоблачно+23°C66 %749 мм1.9 м/с2 %
  • 20июля
    Суббота
    +15°
    +27°
    Практически безоблачно
    ВремяПогодаТемператураВлажностьДавлениеВетер, м/сВероятность осадков
    00:00Ясно и безоблачно+19°C76 %749 мм1.3 м/с2 %
    03:00Ясно и безоблачно+17°C81 %748 мм1.1 м/с2 %
    06:00Ясно и безоблачно+16°C83 %748 мм0.9 м/с2 %
    09:00Ясно и безоблачно+20°C67 %748 мм1.6 м/с2 %
    12:00Практически безоблачно+24°C50 %748 мм2.5 м/с17 %
    15:00Практически безоблачно+26°C43 %747 мм2.2 м/с24 %
    18:00Практически безоблачно+26°C42 %746 мм2.9 м/с24 %
    21:00Практически безоблачно+22°C67 %746 мм1.3 м/с2 %
  • 21июля
    Воскресенье
    +16°
    +27°
    Практически безоблачно
    ВремяПогодаТемператураВлажностьДавлениеВетер, м/сВероятность осадков
    00:00Практически безоблачно+19°C79 %746 мм0.7 м/с2 %
    03:00Ясно и безоблачно+17°C88 %746 мм0.6 м/с2 %
    06:00Ясно и безоблачно+17°C89 %746 мм0.3 м/с2 %
    09:00Ясно и безоблачно+21°C64 %747 мм0.9 м/с2 %
    12:00Ясно и безоблачно+24°C50 %747 мм1.7 м/с11 %
    15:00Практически безоблачно+26°C47 %746 мм1.4 м/с21 %
    18:00Ясно и безоблачно+26°C47 %746 мм2.4 м/с19 %
    21:00Ясно и безоблачно+23°C60 %746 мм0.9 м/с8 %
  • 22июля
    Понедельник
    +16°
    +28°
    Облачно с прояснениями
    ВремяПогодаТемператураВлажностьДавлениеВетер, м/сВероятность осадков
    00:00Ясно и безоблачно+20°C79 %746 мм0.4 м/с4 %
    03:00Ясно и безоблачно+18°C91 %746 мм0.5 м/с3 %
    06:00Ясно и безоблачно+17°C92 %746 мм0.2 м/с7 %
    09:00Ясно и безоблачно+22°C64 %746 мм0.7 м/с6 %
    12:00Ясно и безоблачно+25°C55 %746 мм1.6 м/с26 %
    15:00Облачно с прояснениями+27°C51 %746 мм1.5 м/с50 %
    18:00Небольшая облачность, ливень+25°C66 %746 мм2.5 м/с54 %
    21:00Ясно и безоблачно+21°C81 %746 мм1.4 м/с13 %
  • 23июля
    Вторник
    +15°
    +28°
    Небольшая облачность
    ВремяПогодаТемператураВлажностьДавлениеВетер, м/сВероятность осадков
    00:00Ясно и безоблачно+19°C89 %746 мм0.7 м/с2 %
    03:00Практически безоблачно+17°C92 %746 мм0.7 м/с5 %
    06:00Ясно и безоблачно+17°C92 %746 мм0.7 м/с6 %
    09:00Ясно и безоблачно+22°C71 %747 мм1.5 м/с8 %
    12:00Практически безоблачно+25°C56 %746 мм2.1 м/с34 %
    15:00Небольшая облачность+27°C53 %746 мм2.0 м/с32 %
    18:00Небольшая облачность и лёгкий дождик+25°C61 %746 мм3.1 м/с43 %
    21:00Практически безоблачно+22°C76 %746 мм1.5 м/с14 %
Мы используем cookies
Соглашаюсь